sensor_id;sensor_type;location;lat;lon;timestamp;P1;durP1;ratioP1;P2;durP2;ratioP2
8642;SDS011;4359;49.358;11.256;2023-04-16T00:03:04;20.42;;;11.32;;
8642;SDS011;4359;49.358;11.256;2023-04-16T00:05:30;20.80;;;12.23;;
8642;SDS011;4359;49.358;11.256;2023-04-16T00:07:55;18.73;;;11.77;;
8642;SDS011;4359;49.358;11.256;2023-04-16T00:10:21;25.10;;;13.65;;
8642;SDS011;4359;49.358;11.256;2023-04-16T00:12:47;20.00;;;11.85;;
8642;SDS011;4359;49.358;11.256;2023-04-16T00:17:38;21.00;;;12.20;;
8642;SDS011;4359;49.358;11.256;2023-04-16T00:20:03;21.90;;;12.48;;
8642;SDS011;4359;49.358;11.256;2023-04-16T00:22:30;22.67;;;12.98;;
8642;SDS011;4359;49.358;11.256;2023-04-16T00:24:55;22.75;;;13.55;;
8642;SDS011;4359;49.358;11.256;2023-04-16T00:27:21;22.02;;;12.70;;
8642;SDS011;4359;49.358;11.256;2023-04-16T00:29:46;20.33;;;12.77;;
8642;SDS011;4359;49.358;11.256;2023-04-16T00:32:12;22.10;;;13.02;;
8642;SDS011;4359;49.358;11.256;2023-04-16T00:34:38;22.17;;;13.13;;
8642;SDS011;4359;49.358;11.256;2023-04-16T00:37:03;22.13;;;13.50;;
8642;SDS011;4359;49.358;11.256;2023-04-16T00:39:29;21.30;;;13.18;;
8642;SDS011;4359;49.358;11.256;2023-04-16T00:44:20;24.00;;;13.32;;
8642;SDS011;4359;49.358;11.256;2023-04-16T00:46:46;27.08;;;14.30;;
8642;SDS011;4359;49.358;11.256;2023-04-16T00:49:11;24.27;;;14.27;;
8642;SDS011;4359;49.358;11.256;2023-04-16T00:51:37;23.38;;;13.60;;
8642;SDS011;4359;49.358;11.256;2023-04-16T00:54:03;19.95;;;12.13;;
8642;SDS011;4359;49.358;11.256;2023-04-16T00:56:30;22.02;;;13.93;;
8642;SDS011;4359;49.358;11.256;2023-04-16T00:58:57;24.08;;;13.50;;
8642;SDS011;4359;49.358;11.256;2023-04-16T01:01:23;20.27;;;12.73;;
8642;SDS011;4359;49.358;11.256;2023-04-16T01:03:49;20.67;;;13.18;;
8642;SDS011;4359;49.358;11.256;2023-04-16T01:06:18;20.33;;;13.18;;
8642;SDS011;4359;49.358;11.256;2023-04-16T01:08:46;20.85;;;13.02;;
8642;SDS011;4359;49.358;11.256;2023-04-16T01:11:13;20.58;;;13.27;;
8642;SDS011;4359;49.358;11.256;2023-04-16T01:13:39;20.95;;;12.82;;
8642;SDS011;4359;49.358;11.256;2023-04-16T01:16:05;21.23;;;13.38;;
8642;SDS011;4359;49.358;11.256;2023-04-16T01:18:32;18.70;;;12.10;;
8642;SDS011;4359;49.358;11.256;2023-04-16T01:20:58;20.15;;;12.68;;
8642;SDS011;4359;49.358;11.256;2023-04-16T01:23:23;19.20;;;12.25;;
8642;SDS011;4359;49.358;11.256;2023-04-16T01:25:49;19.73;;;12.35;;
8642;SDS011;4359;49.358;11.256;2023-04-16T01:28:15;20.05;;;13.05;;
8642;SDS011;4359;49.358;11.256;2023-04-16T01:30:41;21.65;;;12.88;;
8642;SDS011;4359;49.358;11.256;2023-04-16T01:33:07;19.17;;;12.32;;
8642;SDS011;4359;49.358;11.256;2023-04-16T01:35:35;19.58;;;12.48;;
8642;SDS011;4359;49.358;11.256;2023-04-16T01:38:00;18.83;;;12.88;;
8642;SDS011;4359;49.358;11.256;2023-04-16T01:40:26;19.50;;;12.98;;
8642;SDS011;4359;49.358;11.256;2023-04-16T01:42:52;19.25;;;12.50;;
8642;SDS011;4359;49.358;11.256;2023-04-16T01:45:18;19.30;;;13.02;;
8642;SDS011;4359;49.358;11.256;2023-04-16T01:47:43;18.65;;;11.90;;
8642;SDS011;4359;49.358;11.256;2023-04-16T01:50:09;18.88;;;12.55;;
8642;SDS011;4359;49.358;11.256;2023-04-16T01:52:35;17.98;;;11.65;;
8642;SDS011;4359;49.358;11.256;2023-04-16T01:55:01;21.48;;;14.18;;
8642;SDS011;4359;49.358;11.256;2023-04-16T01:57:27;21.92;;;12.77;;
8642;SDS011;4359;49.358;11.256;2023-04-16T01:59:53;18.95;;;12.43;;
8642;SDS011;4359;49.358;11.256;2023-04-16T02:02:18;18.58;;;11.95;;
8642;SDS011;4359;49.358;11.256;2023-04-16T02:04:44;18.67;;;11.90;;
8642;SDS011;4359;49.358;11.256;2023-04-16T02:07:10;20.00;;;12.45;;
8642;SDS011;4359;49.358;11.256;2023-04-16T02:09:36;18.38;;;12.15;;
8642;SDS011;4359;49.358;11.256;2023-04-16T02:12:03;22.20;;;13.52;;
8642;SDS011;4359;49.358;11.256;2023-04-16T02:14:30;20.27;;;12.75;;
8642;SDS011;4359;49.358;11.256;2023-04-16T02:16:56;19.98;;;12.30;;
8642;SDS011;4359;49.358;11.256;2023-04-16T02:19:22;19.00;;;11.90;;
8642;SDS011;4359;49.358;11.256;2023-04-16T02:21:48;20.00;;;12.30;;
8642;SDS011;4359;49.358;11.256;2023-04-16T02:24:15;18.17;;;11.40;;
8642;SDS011;4359;49.358;11.256;2023-04-16T02:26:41;18.30;;;11.52;;
8642;SDS011;4359;49.358;11.256;2023-04-16T02:29:07;18.15;;;11.65;;
8642;SDS011;4359;49.358;11.256;2023-04-16T02:31:32;18.63;;;12.20;;
8642;SDS011;4359;49.358;11.256;2023-04-16T02:33:58;18.77;;;11.90;;
8642;SDS011;4359;49.358;11.256;2023-04-16T02:36:23;18.80;;;11.77;;
8642;SDS011;4359;49.358;11.256;2023-04-16T02:38:49;20.63;;;11.65;;
8642;SDS011;4359;49.358;11.256;2023-04-16T02:41:15;17.85;;;11.10;;
8642;SDS011;4359;49.358;11.256;2023-04-16T02:43:41;18.95;;;11.18;;
8642;SDS011;4359;49.358;11.256;2023-04-16T02:46:06;20.10;;;12.13;;
8642;SDS011;4359;49.358;11.256;2023-04-16T02:48:32;19.80;;;11.73;;
8642;SDS011;4359;49.358;11.256;2023-04-16T02:50:58;17.90;;;11.38;;
8642;SDS011;4359;49.358;11.256;2023-04-16T02:53:23;17.83;;;10.85;;
8642;SDS011;4359;49.358;11.256;2023-04-16T02:55:53;21.23;;;12.00;;
8642;SDS011;4359;49.358;11.256;2023-04-16T02:58:20;16.85;;;10.32;;
8642;SDS011;4359;49.358;11.256;2023-04-16T03:00:48;19.58;;;11.57;;
8642;SDS011;4359;49.358;11.256;2023-04-16T03:03:14;18.63;;;11.50;;
8642;SDS011;4359;49.358;11.256;2023-04-16T03:05:41;18.65;;;11.05;;
8642;SDS011;4359;49.358;11.256;2023-04-16T03:08:06;16.42;;;10.25;;
8642;SDS011;4359;49.358;11.256;2023-04-16T03:10:32;16.42;;;10.18;;
8642;SDS011;4359;49.358;11.256;2023-04-16T03:12:59;16.55;;;10.45;;
8642;SDS011;4359;49.358;11.256;2023-04-16T03:15:25;17.70;;;10.40;;
8642;SDS011;4359;49.358;11.256;2023-04-16T03:17:51;17.20;;;10.55;;
8642;SDS011;4359;49.358;11.256;2023-04-16T03:20:17;16.63;;;10.02;;
8642;SDS011;4359;49.358;11.256;2023-04-16T03:22:44;18.00;;;10.50;;
8642;SDS011;4359;49.358;11.256;2023-04-16T03:25:12;18.63;;;10.70;;
8642;SDS011;4359;49.358;11.256;2023-04-16T03:27:38;17.25;;;10.20;;
8642;SDS011;4359;49.358;11.256;2023-04-16T03:30:07;18.27;;;10.50;;
8642;SDS011;4359;49.358;11.256;2023-04-16T03:32:36;18.45;;;10.60;;
8642;SDS011;4359;49.358;11.256;2023-04-16T03:35:02;16.00;;;10.38;;
8642;SDS011;4359;49.358;11.256;2023-04-16T03:37:28;18.52;;;10.52;;
8642;SDS011;4359;49.358;11.256;2023-04-16T03:39:54;16.73;;;10.10;;
8642;SDS011;4359;49.358;11.256;2023-04-16T03:42:20;15.85;;;9.77;;
8642;SDS011;4359;49.358;11.256;2023-04-16T03:44:45;15.90;;;9.77;;
8642;SDS011;4359;49.358;11.256;2023-04-16T03:47:11;17.08;;;10.25;;
8642;SDS011;4359;49.358;11.256;2023-04-16T03:49:37;17.77;;;10.13;;
8642;SDS011;4359;49.358;11.256;2023-04-16T03:52:02;16.85;;;9.55;;
8642;SDS011;4359;49.358;11.256;2023-04-16T03:54:28;19.00;;;10.93;;
8642;SDS011;4359;49.358;11.256;2023-04-16T03:56:54;19.35;;;10.73;;
8642;SDS011;4359;49.358;11.256;2023-04-16T03:59:21;18.10;;;10.07;;
8642;SDS011;4359;49.358;11.256;2023-04-16T04:01:46;17.40;;;10.10;;
8642;SDS011;4359;49.358;11.256;2023-04-16T04:04:12;17.85;;;10.07;;
8642;SDS011;4359;49.358;11.256;2023-04-16T04:06:38;22.83;;;13.23;;
8642;SDS011;4359;49.358;11.256;2023-04-16T04:09:03;23.15;;;12.23;;
8642;SDS011;4359;49.358;11.256;2023-04-16T04:11:29;22.83;;;11.30;;
8642;SDS011;4359;49.358;11.256;2023-04-16T04:13:55;19.95;;;11.10;;
8642;SDS011;4359;49.358;11.256;2023-04-16T04:16:21;20.35;;;10.90;;
8642;SDS011;4359;49.358;11.256;2023-04-16T04:18:46;18.08;;;9.82;;
8642;SDS011;4359;49.358;11.256;2023-04-16T04:21:12;17.73;;;9.90;;
8642;SDS011;4359;49.358;11.256;2023-04-16T04:23:37;19.55;;;10.05;;
8642;SDS011;4359;49.358;11.256;2023-04-16T04:26:05;18.58;;;9.88;;
8642;SDS011;4359;49.358;11.256;2023-04-16T04:28:31;20.45;;;10.82;;
8642;SDS011;4359;49.358;11.256;2023-04-16T04:30:57;20.52;;;10.93;;
8642;SDS011;4359;49.358;11.256;2023-04-16T04:33:24;19.17;;;10.50;;
8642;SDS011;4359;49.358;11.256;2023-04-16T04:35:50;20.10;;;10.35;;
8642;SDS011;4359;49.358;11.256;2023-04-16T04:38:16;24.67;;;11.25;;
8642;SDS011;4359;49.358;11.256;2023-04-16T04:40:48;23.95;;;11.30;;
8642;SDS011;4359;49.358;11.256;2023-04-16T04:43:18;21.52;;;10.73;;
8642;SDS011;4359;49.358;11.256;2023-04-16T04:45:44;23.52;;;10.95;;
8642;SDS011;4359;49.358;11.256;2023-04-16T04:48:10;21.52;;;10.85;;
8642;SDS011;4359;49.358;11.256;2023-04-16T04:50:36;20.45;;;10.15;;
8642;SDS011;4359;49.358;11.256;2023-04-16T04:53:01;21.55;;;10.20;;
8642;SDS011;4359;49.358;11.256;2023-04-16T04:55:33;20.40;;;9.75;;
8642;SDS011;4359;49.358;11.256;2023-04-16T04:58:05;25.05;;;11.55;;
8642;SDS011;4359;49.358;11.256;2023-04-16T05:00:32;22.70;;;11.32;;
8642;SDS011;4359;49.358;11.256;2023-04-16T05:03:02;21.55;;;10.05;;
8642;SDS011;4359;49.358;11.256;2023-04-16T05:05:29;21.23;;;11.00;;
8642;SDS011;4359;49.358;11.256;2023-04-16T05:07:54;21.08;;;10.77;;
8642;SDS011;4359;49.358;11.256;2023-04-16T05:10:20;22.10;;;11.07;;
8642;SDS011;4359;49.358;11.256;2023-04-16T05:12:46;23.58;;;11.63;;
8642;SDS011;4359;49.358;11.256;2023-04-16T05:15:12;21.83;;;10.63;;
8642;SDS011;4359;49.358;11.256;2023-04-16T05:17:38;22.92;;;10.52;;
8642;SDS011;4359;49.358;11.256;2023-04-16T05:20:04;21.77;;;11.25;;
8642;SDS011;4359;49.358;11.256;2023-04-16T05:22:30;24.10;;;10.90;;
8642;SDS011;4359;49.358;11.256;2023-04-16T05:24:55;23.05;;;10.90;;
8642;SDS011;4359;49.358;11.256;2023-04-16T05:27:22;23.02;;;10.82;;
8642;SDS011;4359;49.358;11.256;2023-04-16T05:29:48;24.00;;;11.23;;
8642;SDS011;4359;49.358;11.256;2023-04-16T05:32:13;21.80;;;10.52;;
8642;SDS011;4359;49.358;11.256;2023-04-16T05:34:39;22.98;;;10.57;;
8642;SDS011;4359;49.358;11.256;2023-04-16T05:37:04;24.67;;;11.23;;
8642;SDS011;4359;49.358;11.256;2023-04-16T05:39:30;21.63;;;9.80;;
8642;SDS011;4359;49.358;11.256;2023-04-16T05:41:56;19.30;;;9.20;;
8642;SDS011;4359;49.358;11.256;2023-04-16T05:44:21;19.58;;;9.48;;
8642;SDS011;4359;49.358;11.256;2023-04-16T05:46:47;18.45;;;9.32;;
8642;SDS011;4359;49.358;11.256;2023-04-16T05:49:13;18.15;;;9.65;;
8642;SDS011;4359;49.358;11.256;2023-04-16T05:51:39;18.38;;;9.25;;
8642;SDS011;4359;49.358;11.256;2023-04-16T05:54:05;16.25;;;8.43;;
8642;SDS011;4359;49.358;11.256;2023-04-16T05:56:30;16.10;;;8.38;;
8642;SDS011;4359;49.358;11.256;2023-04-16T05:58:56;18.17;;;8.75;;
8642;SDS011;4359;49.358;11.256;2023-04-16T06:01:22;19.08;;;8.52;;
8642;SDS011;4359;49.358;11.256;2023-04-16T06:03:47;17.33;;;8.02;;
8642;SDS011;4359;49.358;11.256;2023-04-16T06:06:13;14.30;;;7.80;;
8642;SDS011;4359;49.358;11.256;2023-04-16T06:08:39;12.90;;;6.72;;
8642;SDS011;4359;49.358;11.256;2023-04-16T06:11:04;13.90;;;7.18;;
8642;SDS011;4359;49.358;11.256;2023-04-16T06:13:30;12.52;;;6.85;;
8642;SDS011;4359;49.358;11.256;2023-04-16T06:15:56;13.85;;;6.90;;
8642;SDS011;4359;49.358;11.256;2023-04-16T06:18:21;11.35;;;5.85;;
8642;SDS011;4359;49.358;11.256;2023-04-16T06:20:47;10.55;;;5.50;;
8642;SDS011;4359;49.358;11.256;2023-04-16T06:23:13;10.00;;;5.60;;
8642;SDS011;4359;49.358;11.256;2023-04-16T06:25:39;10.10;;;5.43;;
8642;SDS011;4359;49.358;11.256;2023-04-16T06:28:05;10.85;;;5.45;;
8642;SDS011;4359;49.358;11.256;2023-04-16T06:30:31;10.27;;;5.75;;
8642;SDS011;4359;49.358;11.256;2023-04-16T06:32:57;10.43;;;5.55;;
8642;SDS011;4359;49.358;11.256;2023-04-16T06:35:23;10.93;;;5.53;;
8642;SDS011;4359;49.358;11.256;2023-04-16T06:37:48;10.45;;;5.63;;
8642;SDS011;4359;49.358;11.256;2023-04-16T06:40:14;8.57;;;5.13;;
8642;SDS011;4359;49.358;11.256;2023-04-16T06:42:41;10.50;;;5.10;;
8642;SDS011;4359;49.358;11.256;2023-04-16T06:45:07;9.23;;;4.97;;
8642;SDS011;4359;49.358;11.256;2023-04-16T06:47:33;7.88;;;4.63;;
8642;SDS011;4359;49.358;11.256;2023-04-16T06:49:58;8.52;;;4.95;;
8642;SDS011;4359;49.358;11.256;2023-04-16T06:52:24;8.70;;;5.15;;
8642;SDS011;4359;49.358;11.256;2023-04-16T06:54:50;7.85;;;4.60;;
8642;SDS011;4359;49.358;11.256;2023-04-16T06:57:15;8.63;;;4.35;;
8642;SDS011;4359;49.358;11.256;2023-04-16T06:59:41;7.85;;;4.47;;
8642;SDS011;4359;49.358;11.256;2023-04-16T07:02:08;7.57;;;4.22;;
8642;SDS011;4359;49.358;11.256;2023-04-16T07:04:34;5.38;;;3.50;;
8642;SDS011;4359;49.358;11.256;2023-04-16T07:07:00;7.57;;;4.10;;
8642;SDS011;4359;49.358;11.256;2023-04-16T07:09:25;6.38;;;3.65;;
8642;SDS011;4359;49.358;11.256;2023-04-16T07:11:51;7.70;;;3.88;;
8642;SDS011;4359;49.358;11.256;2023-04-16T07:14:18;6.40;;;3.72;;
8642;SDS011;4359;49.358;11.256;2023-04-16T07:16:43;5.93;;;3.83;;
8642;SDS011;4359;49.358;11.256;2023-04-16T07:19:09;6.32;;;3.80;;
8642;SDS011;4359;49.358;11.256;2023-04-16T07:21:35;5.43;;;3.53;;
8642;SDS011;4359;49.358;11.256;2023-04-16T07:24:01;5.35;;;3.45;;
8642;SDS011;4359;49.358;11.256;2023-04-16T07:26:27;6.05;;;3.65;;
8642;SDS011;4359;49.358;11.256;2023-04-16T07:28:52;5.90;;;3.85;;
8642;SDS011;4359;49.358;11.256;2023-04-16T07:31:18;6.22;;;3.42;;
8642;SDS011;4359;49.358;11.256;2023-04-16T07:36:11;5.68;;;3.10;;
8642;SDS011;4359;49.358;11.256;2023-04-16T07:38:38;5.80;;;3.45;;
8642;SDS011;4359;49.358;11.256;2023-04-16T07:41:03;4.35;;;2.63;;
8642;SDS011;4359;49.358;11.256;2023-04-16T07:43:29;3.72;;;2.50;;
8642;SDS011;4359;49.358;11.256;2023-04-16T07:45:55;7.28;;;3.30;;
8642;SDS011;4359;49.358;11.256;2023-04-16T07:48:20;3.60;;;2.30;;
8642;SDS011;4359;49.358;11.256;2023-04-16T07:50:46;3.30;;;2.00;;
8642;SDS011;4359;49.358;11.256;2023-04-16T07:53:12;3.15;;;1.98;;
8642;SDS011;4359;49.358;11.256;2023-04-16T07:55:37;4.28;;;2.92;;
8642;SDS011;4359;49.358;11.256;2023-04-16T07:58:03;4.32;;;2.70;;
8642;SDS011;4359;49.358;11.256;2023-04-16T08:00:30;5.90;;;2.80;;
8642;SDS011;4359;49.358;11.256;2023-04-16T08:02:56;3.72;;;2.47;;
8642;SDS011;4359;49.358;11.256;2023-04-16T08:05:21;3.67;;;2.45;;
8642;SDS011;4359;49.358;11.256;2023-04-16T08:07:47;3.63;;;2.50;;
8642;SDS011;4359;49.358;11.256;2023-04-16T08:10:12;3.33;;;2.25;;
8642;SDS011;4359;49.358;11.256;2023-04-16T08:12:38;3.35;;;2.30;;
8642;SDS011;4359;49.358;11.256;2023-04-16T08:15:04;3.40;;;2.10;;
8642;SDS011;4359;49.358;11.256;2023-04-16T08:17:31;3.30;;;2.15;;
8642;SDS011;4359;49.358;11.256;2023-04-16T08:19:58;2.92;;;1.90;;
8642;SDS011;4359;49.358;11.256;2023-04-16T08:22:24;2.92;;;2.03;;
8642;SDS011;4359;49.358;11.256;2023-04-16T08:24:50;4.00;;;3.13;;
8642;SDS011;4359;49.358;11.256;2023-04-16T08:27:16;4.03;;;2.22;;
8642;SDS011;4359;49.358;11.256;2023-04-16T08:29:42;3.08;;;2.05;;
8642;SDS011;4359;49.358;11.256;2023-04-16T08:32:07;3.25;;;2.13;;
8642;SDS011;4359;49.358;11.256;2023-04-16T08:34:36;2.17;;;1.40;;
8642;SDS011;4359;49.358;11.256;2023-04-16T08:37:02;2.08;;;1.10;;
8642;SDS011;4359;49.358;11.256;2023-04-16T08:39:27;1.90;;;0.82;;
8642;SDS011;4359;49.358;11.256;2023-04-16T08:41:53;1.98;;;1.20;;
8642;SDS011;4359;49.358;11.256;2023-04-16T08:44:27;1.42;;;0.82;;
8642;SDS011;4359;49.358;11.256;2023-04-16T08:46:57;1.83;;;0.90;;
8642;SDS011;4359;49.358;11.256;2023-04-16T08:49:24;1.98;;;1.27;;
8642;SDS011;4359;49.358;11.256;2023-04-16T08:51:51;2.20;;;1.20;;
8642;SDS011;4359;49.358;11.256;2023-04-16T08:54:30;3.35;;;1.05;;
8642;SDS011;4359;49.358;11.256;2023-04-16T08:57:05;1.83;;;1.10;;
8642;SDS011;4359;49.358;11.256;2023-04-16T08:59:33;1.83;;;1.10;;
8642;SDS011;4359;49.358;11.256;2023-04-16T09:02:00;2.20;;;1.13;;
8642;SDS011;4359;49.358;11.256;2023-04-16T09:04:26;2.10;;;1.27;;
8642;SDS011;4359;49.358;11.256;2023-04-16T09:06:54;2.10;;;1.25;;
8642;SDS011;4359;49.358;11.256;2023-04-16T09:09:24;3.70;;;1.90;;
8642;SDS011;4359;49.358;11.256;2023-04-16T09:11:51;4.13;;;1.23;;
8642;SDS011;4359;49.358;11.256;2023-04-16T09:14:17;1.50;;;0.73;;
8642;SDS011;4359;49.358;11.256;2023-04-16T09:16:44;1.67;;;0.98;;
8642;SDS011;4359;49.358;11.256;2023-04-16T09:19:11;2.25;;;1.10;;
8642;SDS011;4359;49.358;11.256;2023-04-16T09:21:38;1.55;;;0.98;;
8642;SDS011;4359;49.358;11.256;2023-04-16T09:24:10;2.65;;;1.10;;
8642;SDS011;4359;49.358;11.256;2023-04-16T09:26:36;1.73;;;0.95;;
8642;SDS011;4359;49.358;11.256;2023-04-16T09:29:02;1.80;;;0.90;;
8642;SDS011;4359;49.358;11.256;2023-04-16T09:31:28;2.78;;;0.80;;
8642;SDS011;4359;49.358;11.256;2023-04-16T09:34:07;1.20;;;0.63;;
8642;SDS011;4359;49.358;11.256;2023-04-16T09:36:33;1.30;;;0.60;;
8642;SDS011;4359;49.358;11.256;2023-04-16T09:39:00;1.30;;;0.70;;
8642;SDS011;4359;49.358;11.256;2023-04-16T09:41:28;1.50;;;0.60;;
8642;SDS011;4359;49.358;11.256;2023-04-16T09:43:59;1.48;;;0.80;;
8642;SDS011;4359;49.358;11.256;2023-04-16T09:46:35;1.92;;;1.08;;
8642;SDS011;4359;49.358;11.256;2023-04-16T09:49:08;1.80;;;0.80;;
8642;SDS011;4359;49.358;11.256;2023-04-16T09:51:39;2.25;;;1.45;;
8642;SDS011;4359;49.358;11.256;2023-04-16T09:54:06;1.45;;;0.50;;
8642;SDS011;4359;49.358;11.256;2023-04-16T09:56:32;1.10;;;0.50;;
8642;SDS011;4359;49.358;11.256;2023-04-16T09:59:03;2.92;;;0.45;;
8642;SDS011;4359;49.358;11.256;2023-04-16T10:01:29;1.15;;;0.50;;
8642;SDS011;4359;49.358;11.256;2023-04-16T10:03:55;1.17;;;0.55;;
8642;SDS011;4359;49.358;11.256;2023-04-16T10:06:22;1.40;;;0.60;;
8642;SDS011;4359;49.358;11.256;2023-04-16T10:08:51;1.20;;;0.50;;
8642;SDS011;4359;49.358;11.256;2023-04-16T10:11:21;1.50;;;0.60;;
8642;SDS011;4359;49.358;11.256;2023-04-16T10:13:47;1.88;;;1.13;;
8642;SDS011;4359;49.358;11.256;2023-04-16T10:16:13;3.88;;;0.80;;
8642;SDS011;4359;49.358;11.256;2023-04-16T10:18:39;0.80;;;0.40;;
8642;SDS011;4359;49.358;11.256;2023-04-16T10:21:06;1.10;;;0.50;;
8642;SDS011;4359;49.358;11.256;2023-04-16T10:23:35;1.67;;;0.65;;
8642;SDS011;4359;49.358;11.256;2023-04-16T10:26:03;0.90;;;0.40;;
8642;SDS011;4359;49.358;11.256;2023-04-16T10:28:30;0.90;;;0.40;;
8642;SDS011;4359;49.358;11.256;2023-04-16T10:30:59;3.25;;;0.50;;
8642;SDS011;4359;49.358;11.256;2023-04-16T10:33:27;1.30;;;0.50;;
8642;SDS011;4359;49.358;11.256;2023-04-16T10:36:08;2.85;;;0.70;;
8642;SDS011;4359;49.358;11.256;2023-04-16T10:38:44;3.03;;;0.50;;
8642;SDS011;4359;49.358;11.256;2023-04-16T10:41:11;1.00;;;0.43;;
8642;SDS011;4359;49.358;11.256;2023-04-16T10:43:38;2.38;;;0.50;;
8642;SDS011;4359;49.358;11.256;2023-04-16T10:51:22;1.33;;;0.57;;
8642;SDS011;4359;49.358;11.256;2023-04-16T10:54:40;1.17;;;0.60;;
8642;SDS011;4359;49.358;11.256;2023-04-16T10:56:41;1.83;;;0.67;;
8642;SDS011;4359;49.358;11.256;2023-04-16T10:59:09;3.95;;;0.68;;
8642;SDS011;4359;49.358;11.256;2023-04-16T11:01:36;1.17;;;0.60;;
8642;SDS011;4359;49.358;11.256;2023-04-16T11:06:58;1.70;;;0.90;;
8642;SDS011;4359;49.358;11.256;2023-04-16T11:09:53;1.80;;;0.80;;
8642;SDS011;4359;49.358;11.256;2023-04-16T11:12:21;1.80;;;1.05;;
8642;SDS011;4359;49.358;11.256;2023-04-16T11:14:48;1.58;;;1.00;;
8642;SDS011;4359;49.358;11.256;2023-04-16T11:17:15;1.50;;;0.80;;
8642;SDS011;4359;49.358;11.256;2023-04-16T11:19:41;4.22;;;0.75;;
8642;SDS011;4359;49.358;11.256;2023-04-16T11:22:07;1.90;;;0.80;;
8642;SDS011;4359;49.358;11.256;2023-04-16T11:24:35;2.20;;;1.17;;
8642;SDS011;4359;49.358;11.256;2023-04-16T11:27:04;2.38;;;1.30;;
8642;SDS011;4359;49.358;11.256;2023-04-16T11:29:29;5.43;;;2.28;;
8642;SDS011;4359;49.358;11.256;2023-04-16T11:31:55;3.05;;;1.65;;
8642;SDS011;4359;49.358;11.256;2023-04-16T11:34:21;1.85;;;1.05;;
8642;SDS011;4359;49.358;11.256;2023-04-16T11:36:47;3.88;;;1.10;;
8642;SDS011;4359;49.358;11.256;2023-04-16T11:39:14;3.08;;;1.30;;
8642;SDS011;4359;49.358;11.256;2023-04-16T11:41:47;4.10;;;2.00;;
8642;SDS011;4359;49.358;11.256;2023-04-16T11:46:51;3.95;;;1.60;;
8642;SDS011;4359;49.358;11.256;2023-04-16T11:49:30;2.28;;;1.00;;
8642;SDS011;4359;49.358;11.256;2023-04-16T11:51:56;1.75;;;0.75;;
8642;SDS011;4359;49.358;11.256;2023-04-16T11:54:22;1.88;;;0.90;;
8642;SDS011;4359;49.358;11.256;2023-04-16T11:56:49;2.33;;;0.90;;
8642;SDS011;4359;49.358;11.256;2023-04-16T11:59:20;4.82;;;2.63;;
8642;SDS011;4359;49.358;11.256;2023-04-16T12:01:48;6.63;;;3.08;;
8642;SDS011;4359;49.358;11.256;2023-04-16T12:04:23;2.08;;;1.15;;
8642;SDS011;4359;49.358;11.256;2023-04-16T12:07:12;3.33;;;1.73;;
8642;SDS011;4359;49.358;11.256;2023-04-16T12:09:38;2.65;;;1.23;;
8642;SDS011;4359;49.358;11.256;2023-04-16T12:12:05;2.22;;;1.17;;
8642;SDS011;4359;49.358;11.256;2023-04-16T12:14:49;2.10;;;1.10;;
8642;SDS011;4359;49.358;11.256;2023-04-16T12:17:17;2.22;;;1.30;;
8642;SDS011;4359;49.358;11.256;2023-04-16T12:19:55;2.15;;;1.00;;
8642;SDS011;4359;49.358;11.256;2023-04-16T12:22:31;2.78;;;0.80;;
8642;SDS011;4359;49.358;11.256;2023-04-16T12:24:59;2.35;;;1.10;;
8642;SDS011;4359;49.358;11.256;2023-04-16T12:27:39;2.55;;;1.17;;
8642;SDS011;4359;49.358;11.256;2023-04-16T12:30:18;2.13;;;1.02;;
8642;SDS011;4359;49.358;11.256;2023-04-16T12:32:47;3.58;;;1.30;;
8642;SDS011;4359;49.358;11.256;2023-04-16T12:35:28;2.35;;;0.70;;
8642;SDS011;4359;49.358;11.256;2023-04-16T12:37:55;2.00;;;0.80;;
8642;SDS011;4359;49.358;11.256;2023-04-16T12:40:21;3.40;;;1.50;;
8642;SDS011;4359;49.358;11.256;2023-04-16T12:42:46;4.45;;;2.88;;
8642;SDS011;4359;49.358;11.256;2023-04-16T12:45:12;3.80;;;1.83;;
8642;SDS011;4359;49.358;11.256;2023-04-16T12:47:38;2.65;;;1.10;;
8642;SDS011;4359;49.358;11.256;2023-04-16T12:50:03;2.92;;;1.00;;
8642;SDS011;4359;49.358;11.256;2023-04-16T12:52:29;1.52;;;0.80;;
8642;SDS011;4359;49.358;11.256;2023-04-16T12:54:55;3.17;;;0.98;;
8642;SDS011;4359;49.358;11.256;2023-04-16T12:57:21;4.00;;;1.80;;
8642;SDS011;4359;49.358;11.256;2023-04-16T12:59:52;2.45;;;1.20;;
8642;SDS011;4359;49.358;11.256;2023-04-16T13:02:19;2.20;;;0.95;;
8642;SDS011;4359;49.358;11.256;2023-04-16T13:04:45;4.07;;;1.05;;
8642;SDS011;4359;49.358;11.256;2023-04-16T13:07:11;3.10;;;0.90;;
8642;SDS011;4359;49.358;11.256;2023-04-16T13:09:36;2.28;;;1.23;;
8642;SDS011;4359;49.358;11.256;2023-04-16T13:12:02;2.88;;;1.00;;
8642;SDS011;4359;49.358;11.256;2023-04-16T13:14:28;2.97;;;1.30;;
8642;SDS011;4359;49.358;11.256;2023-04-16T13:16:53;2.13;;;1.00;;
8642;SDS011;4359;49.358;11.256;2023-04-16T13:19:19;2.17;;;1.10;;
8642;SDS011;4359;49.358;11.256;2023-04-16T13:21:45;2.25;;;0.98;;
8642;SDS011;4359;49.358;11.256;2023-04-16T13:24:10;2.20;;;1.35;;
8642;SDS011;4359;49.358;11.256;2023-04-16T13:26:36;3.03;;;0.95;;
8642;SDS011;4359;49.358;11.256;2023-04-16T13:29:02;2.25;;;1.05;;
8642;SDS011;4359;49.358;11.256;2023-04-16T13:31:27;1.77;;;1.00;;
8642;SDS011;4359;49.358;11.256;2023-04-16T13:33:53;7.75;;;3.35;;
8642;SDS011;4359;49.358;11.256;2023-04-16T13:36:19;7.03;;;3.13;;
8642;SDS011;4359;49.358;11.256;2023-04-16T13:38:44;3.72;;;1.42;;
8642;SDS011;4359;49.358;11.256;2023-04-16T13:41:10;1.90;;;1.13;;
8642;SDS011;4359;49.358;11.256;2023-04-16T13:43:36;3.90;;;1.30;;
8642;SDS011;4359;49.358;11.256;2023-04-16T13:46:01;3.42;;;1.10;;
8642;SDS011;4359;49.358;11.256;2023-04-16T13:48:27;3.20;;;1.30;;
8642;SDS011;4359;49.358;11.256;2023-04-16T13:50:53;5.50;;;1.13;;
8642;SDS011;4359;49.358;11.256;2023-04-16T13:53:20;2.92;;;0.93;;
8642;SDS011;4359;49.358;11.256;2023-04-16T13:55:46;2.33;;;1.02;;
8642;SDS011;4359;49.358;11.256;2023-04-16T13:58:13;2.17;;;1.08;;
8642;SDS011;4359;49.358;11.256;2023-04-16T14:00:39;2.15;;;1.10;;
8642;SDS011;4359;49.358;11.256;2023-04-16T14:03:06;2.33;;;1.08;;
8642;SDS011;4359;49.358;11.256;2023-04-16T14:05:32;1.80;;;1.00;;
8642;SDS011;4359;49.358;11.256;2023-04-16T14:07:58;1.83;;;1.08;;
8642;SDS011;4359;49.358;11.256;2023-04-16T14:10:23;2.53;;;1.10;;
8642;SDS011;4359;49.358;11.256;2023-04-16T14:12:49;2.42;;;1.13;;
8642;SDS011;4359;49.358;11.256;2023-04-16T14:15:15;2.03;;;0.80;;
8642;SDS011;4359;49.358;11.256;2023-04-16T14:17:41;1.75;;;0.90;;
8642;SDS011;4359;49.358;11.256;2023-04-16T14:20:08;2.40;;;1.00;;
8642;SDS011;4359;49.358;11.256;2023-04-16T14:22:35;2.40;;;1.05;;
8642;SDS011;4359;49.358;11.256;2023-04-16T14:25:01;2.00;;;0.80;;
8642;SDS011;4359;49.358;11.256;2023-04-16T14:27:27;2.08;;;1.17;;
8642;SDS011;4359;49.358;11.256;2023-04-16T14:29:53;1.80;;;0.93;;
8642;SDS011;4359;49.358;11.256;2023-04-16T14:32:18;1.80;;;0.98;;
8642;SDS011;4359;49.358;11.256;2023-04-16T14:34:44;2.20;;;0.98;;
8642;SDS011;4359;49.358;11.256;2023-04-16T14:37:10;2.38;;;1.10;;
8642;SDS011;4359;49.358;11.256;2023-04-16T14:39:36;1.85;;;1.13;;
8642;SDS011;4359;49.358;11.256;2023-04-16T14:42:03;1.88;;;0.98;;
8642;SDS011;4359;49.358;11.256;2023-04-16T14:44:30;1.70;;;1.10;;
8642;SDS011;4359;49.358;11.256;2023-04-16T14:46:56;2.08;;;1.13;;
8642;SDS011;4359;49.358;11.256;2023-04-16T14:49:21;3.20;;;1.00;;
8642;SDS011;4359;49.358;11.256;2023-04-16T14:51:47;2.08;;;1.00;;
8642;SDS011;4359;49.358;11.256;2023-04-16T14:54:13;2.00;;;1.20;;
8642;SDS011;4359;49.358;11.256;2023-04-16T14:56:39;2.00;;;1.05;;
8642;SDS011;4359;49.358;11.256;2023-04-16T14:59:04;2.30;;;1.30;;
8642;SDS011;4359;49.358;11.256;2023-04-16T15:01:31;3.45;;;1.23;;
8642;SDS011;4359;49.358;11.256;2023-04-16T15:03:57;2.92;;;1.20;;
8642;SDS011;4359;49.358;11.256;2023-04-16T15:06:23;2.08;;;1.10;;
8642;SDS011;4359;49.358;11.256;2023-04-16T15:08:49;2.83;;;1.30;;